createdAt,value
2022-07-29T00:00:00.763Z,51.30
2022-07-29T00:02:35.186Z,51.50
2022-07-29T00:05:14.893Z,51.60
2022-07-29T00:07:48.404Z,51.60
2022-07-29T00:10:39.500Z,52.20
2022-07-29T00:13:10.700Z,51.90
2022-07-29T00:15:43.184Z,51.90
2022-07-29T00:18:29.956Z,51.80
2022-07-29T00:20:58.335Z,51.90
2022-07-29T00:24:11.021Z,52.10
2022-07-29T00:26:54.920Z,52.10
2022-07-29T00:29:41.296Z,52.50
2022-07-29T00:32:12.775Z,52.80
2022-07-29T00:35:13.731Z,52.60
2022-07-29T00:37:40.980Z,52.80
2022-07-29T00:40:14.167Z,53.00
2022-07-29T00:43:04.304Z,53.20
2022-07-29T00:45:39.672Z,52.90
2022-07-29T00:48:28.497Z,53.10
2022-07-29T00:51:00.417Z,53.40
2022-07-29T00:53:30.282Z,53.80
2022-07-29T00:56:08.417Z,53.80
2022-07-29T00:58:36.942Z,53.70
2022-07-29T01:01:07.932Z,54.10
2022-07-29T01:03:53.516Z,54.00
2022-07-29T01:06:25.028Z,53.80
2022-07-29T01:12:21.190Z,54.20
2022-07-29T01:15:00.221Z,54.20
2022-07-29T01:17:36.239Z,53.90
2022-07-29T01:20:14.740Z,54.30
2022-07-29T01:22:48.492Z,53.90
2022-07-29T01:25:44.389Z,54.00
2022-07-29T01:28:32.557Z,54.40
2022-07-29T01:31:01.904Z,54.60
2022-07-29T01:33:51.883Z,54.30
2022-07-29T01:36:42.496Z,54.60
2022-07-29T01:39:37.570Z,54.80
2022-07-29T01:42:22.115Z,54.50
2022-07-29T01:45:01.683Z,54.60
2022-07-29T01:47:35.995Z,54.50
2022-07-29T01:50:24.315Z,54.80
2022-07-29T01:53:10.485Z,54.70
2022-07-29T01:55:44.605Z,54.60
2022-07-29T01:58:14.852Z,54.80
2022-07-29T02:00:48.318Z,55.00
2022-07-29T02:03:27.442Z,55.10
2022-07-29T02:06:01.071Z,55.50
2022-07-29T02:08:34.046Z,55.20
2022-07-29T02:11:09.350Z,55.50
2022-07-29T02:13:40.987Z,55.50
2022-07-29T02:16:10.863Z,55.80
2022-07-29T02:18:51.868Z,55.70
2022-07-29T02:21:32.523Z,55.70
2022-07-29T02:24:10.727Z,55.90
2022-07-29T02:26:58.131Z,55.80
2022-07-29T02:29:50.251Z,55.90
2022-07-29T02:32:30.503Z,56.10
2022-07-29T02:35:20.861Z,56.50
2022-07-29T02:38:20.165Z,56.60
2022-07-29T02:40:55.598Z,56.70
2022-07-29T02:43:23.528Z,57.00
2022-07-29T02:45:55.236Z,56.70
2022-07-29T02:48:42.446Z,56.40
2022-07-29T02:51:43.573Z,56.20
2022-07-29T02:54:40.967Z,56.30
2022-07-29T02:57:31.886Z,56.10
2022-07-29T03:00:10.498Z,56.00
2022-07-29T03:02:53.743Z,58.20
2022-07-29T03:05:32.482Z,58.70
2022-07-29T03:08:42.502Z,58.60
2022-07-29T03:11:12.865Z,58.50
2022-07-29T03:13:50.172Z,58.90
2022-07-29T03:16:20.405Z,59.50
2022-07-29T03:19:17.624Z,59.90
2022-07-29T03:21:46.067Z,59.10
2022-07-29T03:24:33.753Z,61.70
2022-07-29T03:27:08.463Z,62.10
2022-07-29T03:29:50.604Z,61.00
2022-07-29T03:32:39.638Z,61.00
2022-07-29T03:35:07.803Z,60.00
2022-07-29T03:37:37.892Z,60.10
2022-07-29T03:40:14.753Z,60.50
2022-07-29T03:43:18.380Z,60.40
2022-07-29T03:46:08.782Z,59.90
2022-07-29T03:48:59.102Z,59.40
2022-07-29T03:51:51.129Z,60.60
2022-07-29T03:54:27.239Z,61.10
2022-07-29T03:56:58.611Z,60.50
2022-07-29T04:02:33.852Z,60.80
2022-07-29T04:05:18.698Z,60.50
2022-07-29T04:07:55.429Z,61.80
2022-07-29T04:10:30.225Z,63.00
2022-07-29T04:13:15.638Z,62.60
2022-07-29T04:15:50.201Z,62.10
2022-07-29T04:18:20.918Z,63.40
2022-07-29T04:20:50.660Z,62.70
2022-07-29T04:23:52.832Z,63.90
2022-07-29T04:26:31.142Z,63.40
2022-07-29T04:29:05.093Z,63.90
2022-07-29T04:31:41.252Z,63.40
2022-07-29T04:34:11.051Z,63.50
2022-07-29T04:36:57.163Z,63.70
2022-07-29T04:39:31.826Z,64.30
2022-07-29T04:42:09.117Z,64.50
2022-07-29T04:44:57.303Z,65.50
2022-07-29T04:47:37.056Z,64.30
2022-07-29T04:50:14.159Z,63.10
2022-07-29T04:52:56.237Z,62.50
2022-07-29T04:55:35.956Z,61.50
2022-07-29T04:58:17.159Z,61.20
2022-07-29T05:00:52.468Z,60.30
2022-07-29T05:03:31.951Z,63.40
2022-07-29T05:06:03.796Z,62.40
2022-07-29T05:09:02.506Z,61.40
2022-07-29T05:11:30.479Z,62.50
2022-07-29T05:14:22.227Z,63.30
2022-07-29T05:16:53.257Z,63.40
2022-07-29T05:19:20.733Z,63.70
2022-07-29T05:21:58.549Z,60.20
2022-07-29T05:24:29.351Z,57.60
2022-07-29T05:26:57.425Z,56.30
2022-07-29T05:29:44.942Z,55.70
2022-07-29T05:32:21.820Z,55.80
2022-07-29T05:34:51.820Z,55.40
2022-07-29T05:37:27.861Z,55.40
2022-07-29T05:40:01.623Z,55.40
2022-07-29T05:42:31.002Z,55.60
2022-07-29T05:45:31.440Z,56.10
2022-07-29T05:48:07.001Z,54.60
2022-07-29T05:50:44.211Z,56.30
2022-07-29T05:53:20.706Z,56.10
2022-07-29T05:55:59.835Z,57.80
2022-07-29T05:58:32.774Z,58.30
2022-07-29T06:01:14.731Z,61.60
2022-07-29T06:04:00.984Z,61.70
2022-07-29T06:06:30.078Z,64.50
2022-07-29T06:09:01.604Z,64.20
2022-07-29T06:12:00.991Z,65.60
2022-07-29T06:14:40.008Z,64.30
2022-07-29T06:18:07.285Z,65.00
2022-07-29T06:20:28.895Z,66.30
2022-07-29T06:23:16.001Z,64.20
2022-07-29T06:25:46.677Z,64.10
2022-07-29T06:28:31.256Z,64.30
2022-07-29T06:30:59.001Z,65.30
2022-07-29T06:33:34.520Z,64.80
2022-07-29T06:36:11.777Z,64.40
2022-07-29T06:38:50.460Z,68.40
2022-07-29T06:41:19.448Z,67.10
2022-07-29T06:43:59.457Z,66.50
2022-07-29T06:47:04.454Z,66.50
2022-07-29T06:49:38.355Z,66.90
2022-07-29T06:52:21.663Z,70.30
2022-07-29T06:54:50.912Z,70.00
2022-07-29T06:57:21.920Z,69.20
2022-07-29T06:59:52.820Z,65.90
2022-07-29T07:05:23.259Z,65.30
2022-07-29T07:07:50.717Z,66.10
2022-07-29T07:10:17.493Z,64.70
2022-07-29T07:12:46.860Z,66.60
2022-07-29T07:20:58.921Z,62.70
2022-07-29T07:23:33.917Z,59.00
2022-07-29T07:26:17.719Z,52.40
2022-07-29T07:28:49.404Z,48.40
2022-07-29T07:34:57.504Z,41.50
2022-07-29T07:37:35.602Z,37.80
2022-07-29T07:40:08.366Z,36.50
2022-07-29T07:42:58.401Z,35.00
2022-07-29T07:45:47.943Z,32.60
2022-07-29T07:48:25.094Z,30.80
2022-07-29T07:50:52.900Z,32.20
2022-07-29T07:56:46.611Z,30.00
2022-07-29T07:59:27.924Z,29.90
2022-07-29T08:02:37.509Z,29.20
2022-07-29T08:04:53.805Z,27.70
2022-07-29T08:07:21.502Z,27.20
2022-07-29T08:09:50.881Z,28.70
2022-07-29T08:12:25.464Z,27.30
2022-07-29T08:14:53.625Z,26.40
2022-07-29T08:17:27.883Z,26.20
2022-07-29T08:19:55.879Z,26.30
2022-07-29T08:22:22.683Z,26.20
2022-07-29T08:25:02.086Z,25.00
2022-07-29T08:27:44.442Z,24.30
2022-07-29T08:30:25.246Z,24.50
2022-07-29T08:32:56.034Z,24.10
2022-07-29T08:35:47.967Z,24.80
2022-07-29T08:38:31.035Z,25.80
2022-07-29T08:40:57.763Z,24.70
2022-07-29T08:43:24.845Z,24.10
2022-07-29T08:45:52.093Z,25.70
2022-07-29T08:48:19.729Z,27.00
2022-07-29T08:50:47.501Z,26.50
2022-07-29T08:53:15.351Z,28.00
2022-07-29T08:55:49.433Z,27.40
2022-07-29T08:58:17.039Z,27.40
2022-07-29T09:00:50.386Z,26.80
2022-07-29T09:03:19.365Z,26.30
2022-07-29T09:05:48.306Z,25.90
2022-07-29T09:08:16.131Z,25.90
2022-07-29T09:10:43.045Z,26.50
2022-07-29T09:13:09.818Z,27.80
2022-07-29T09:15:36.598Z,29.20
2022-07-29T09:18:03.545Z,29.90
2022-07-29T09:20:50.256Z,31.50
2022-07-29T09:23:24.128Z,32.50
2022-07-29T09:25:51.397Z,33.20
2022-07-29T09:28:18.592Z,34.80
2022-07-29T09:30:53.119Z,34.00
2022-07-29T09:33:20.218Z,36.70
2022-07-29T09:35:56.380Z,36.10
2022-07-29T09:38:24.466Z,37.00
2022-07-29T09:40:59.958Z,38.10
2022-07-29T09:43:33.432Z,38.30
2022-07-29T09:46:15.288Z,39.30
2022-07-29T09:48:42.242Z,40.50
2022-07-29T09:51:25.517Z,40.90
2022-07-29T09:53:59.134Z,40.70
2022-07-29T09:56:41.985Z,41.40
2022-07-29T09:59:09.279Z,43.00
2022-07-29T10:01:36.906Z,45.50
2022-07-29T10:04:03.793Z,46.30
2022-07-29T10:06:30.819Z,47.00
2022-07-29T10:09:13.094Z,47.40
2022-07-29T10:11:48.941Z,48.60
2022-07-29T10:14:17.094Z,49.40
2022-07-29T10:16:44.221Z,51.40
2022-07-29T10:19:11.324Z,54.00
2022-07-29T10:21:40.724Z,56.40
2022-07-29T10:24:14.643Z,57.20
2022-07-29T10:26:42.467Z,61.40
2022-07-29T10:29:09.257Z,64.50
2022-07-29T10:31:43.190Z,67.50
2022-07-29T10:34:20.957Z,68.00
2022-07-29T10:36:57.857Z,68.10
2022-07-29T10:39:45.170Z,67.80
2022-07-29T10:42:33.344Z,67.90
2022-07-29T10:45:01.626Z,67.70
2022-07-29T10:47:28.536Z,68.50
2022-07-29T10:49:56.646Z,67.10
2022-07-29T10:52:30.083Z,65.90
2022-07-29T10:54:59.521Z,64.40
2022-07-29T10:57:52.402Z,65.50
2022-07-29T11:00:17.035Z,65.80
2022-07-29T11:02:45.338Z,67.30
2022-07-29T11:05:13.190Z,65.00
2022-07-29T11:07:45.824Z,64.10
2022-07-29T11:10:13.951Z,61.90
2022-07-29T11:12:44.404Z,59.80
2022-07-29T11:15:21.747Z,60.50
2022-07-29T11:17:59.396Z,56.50
2022-07-29T11:23:20.331Z,54.80
2022-07-29T11:26:08.683Z,55.90
2022-07-29T11:28:36.389Z,56.00
2022-07-29T11:31:04.312Z,54.60
2022-07-29T11:33:54.470Z,54.60
2022-07-29T11:36:28.292Z,50.40
2022-07-29T11:39:15.343Z,50.30
2022-07-29T11:41:42.281Z,49.00
2022-07-29T11:44:09.648Z,44.90
2022-07-29T11:46:49.902Z,45.60
2022-07-29T11:49:23.655Z,45.50
2022-07-29T11:52:02.536Z,46.60
2022-07-29T11:54:38.694Z,44.30
2022-07-29T11:57:21.921Z,45.10
2022-07-29T11:59:48.910Z,44.40
2022-07-29T12:05:10.592Z,45.70
2022-07-29T12:07:03.607Z,44.90
2022-07-29T12:07:50.385Z,46.10
2022-07-29T12:10:19.992Z,47.10
2022-07-29T12:12:56.811Z,48.20
2022-07-29T12:15:39.481Z,49.10
2022-07-29T12:18:18.630Z,51.10
2022-07-29T12:20:47.030Z,48.70
2022-07-29T12:23:16.315Z,49.20
2022-07-29T12:25:50.018Z,49.20
2022-07-29T12:28:26.406Z,48.60
2022-07-29T12:30:55.371Z,50.10
2022-07-29T12:33:29.766Z,50.80
2022-07-29T12:36:06.713Z,50.30
2022-07-29T12:38:36.734Z,50.30
2022-07-29T12:41:05.265Z,51.60
2022-07-29T12:43:32.953Z,51.30
2022-07-29T12:46:13.801Z,51.20
2022-07-29T12:48:41.976Z,51.00
2022-07-29T12:51:09.749Z,51.00
2022-07-29T12:53:37.181Z,49.50
2022-07-29T12:56:15.557Z,49.70
2022-07-29T12:58:51.129Z,50.00
2022-07-29T13:01:20.291Z,49.60
2022-07-29T13:03:57.299Z,53.10
2022-07-29T13:06:30.773Z,50.00
2022-07-29T13:09:05.458Z,51.70
2022-07-29T13:11:45.248Z,50.80
2022-07-29T13:14:30.106Z,51.60
2022-07-29T13:17:05.267Z,51.90
2022-07-29T13:19:36.853Z,52.60
2022-07-29T13:22:03.877Z,51.90
2022-07-29T13:24:31.182Z,51.40
2022-07-29T13:26:58.356Z,51.60
2022-07-29T13:29:31.325Z,51.10
2022-07-29T13:31:59.098Z,50.80
2022-07-29T13:34:26.199Z,50.10
2022-07-29T13:36:55.655Z,50.30
2022-07-29T13:39:22.365Z,49.30
2022-07-29T13:41:49.147Z,51.70
2022-07-29T13:44:16.010Z,50.60
2022-07-29T13:46:42.703Z,49.80
2022-07-29T13:49:09.471Z,49.10
2022-07-29T13:51:36.215Z,49.10
2022-07-29T13:54:03.072Z,50.00
2022-07-29T13:56:29.764Z,50.00
2022-07-29T13:58:56.518Z,48.10
2022-07-29T14:01:23.254Z,48.50
2022-07-29T14:03:50.163Z,49.20
2022-07-29T14:06:16.901Z,48.40
2022-07-29T14:08:45.035Z,48.40
2022-07-29T14:11:11.746Z,47.50
2022-07-29T14:13:38.492Z,48.00
2022-07-29T14:16:05.554Z,48.00
2022-07-29T14:18:32.426Z,48.80
2022-07-29T14:20:59.195Z,48.80
2022-07-29T14:23:25.926Z,49.10
2022-07-29T14:25:53.257Z,49.30
2022-07-29T14:28:20.378Z,50.00
2022-07-29T14:30:47.265Z,50.90
2022-07-29T14:33:14.055Z,50.40
2022-07-29T14:35:41.049Z,49.80
2022-07-29T14:38:07.725Z,50.10
2022-07-29T14:40:34.436Z,50.00
2022-07-29T14:43:02.440Z,50.60
2022-07-29T14:45:29.561Z,50.00
2022-07-29T14:47:57.243Z,50.70
2022-07-29T14:50:31.451Z,50.50
2022-07-29T14:52:59.485Z,50.10
2022-07-29T14:55:26.251Z,49.50
2022-07-29T14:57:57.955Z,49.40
2022-07-29T15:00:33.169Z,50.50
2022-07-29T15:03:03.281Z,50.00
2022-07-29T15:05:30.885Z,49.90
2022-07-29T15:07:57.977Z,49.90
2022-07-29T15:10:25.261Z,49.80
2022-07-29T15:12:54.472Z,49.40
2022-07-29T15:15:22.599Z,49.70
2022-07-29T15:17:49.360Z,48.70
2022-07-29T15:20:16.166Z,47.70
2022-07-29T15:22:43.932Z,47.10
2022-07-29T15:25:11.204Z,47.80
2022-07-29T15:27:37.971Z,47.50
2022-07-29T15:30:04.880Z,47.90
2022-07-29T15:32:31.666Z,48.60
2022-07-29T15:34:58.360Z,48.30
2022-07-29T15:37:25.233Z,49.00
2022-07-29T15:39:51.970Z,48.60
2022-07-29T15:42:18.723Z,49.10
2022-07-29T15:44:45.728Z,50.60
2022-07-29T15:47:12.474Z,50.60
2022-07-29T15:49:47.463Z,51.00
2022-07-29T15:52:17.995Z,50.80
2022-07-29T15:54:47.807Z,50.90
2022-07-29T15:57:14.606Z,50.70
2022-07-29T15:59:41.412Z,50.80
2022-07-29T16:02:08.200Z,51.00
2022-07-29T16:04:35.021Z,51.50
2022-07-29T16:07:01.861Z,51.90
2022-07-29T16:09:28.947Z,51.90
2022-07-29T16:11:56.609Z,52.50
2022-07-29T16:14:23.356Z,58.60
2022-07-29T16:16:50.181Z,64.90
2022-07-29T16:19:17.010Z,68.50
2022-07-29T16:21:43.903Z,70.80
2022-07-29T16:24:10.684Z,72.30
2022-07-29T16:26:47.014Z,73.60
2022-07-29T16:29:13.879Z,75.40
2022-07-29T16:31:40.773Z,77.80
2022-07-29T16:34:10.175Z,80.60
2022-07-29T16:36:36.937Z,84.80
2022-07-29T16:39:05.581Z,88.70
2022-07-29T16:41:32.294Z,93.80
2022-07-29T16:43:59.342Z,94.50
2022-07-29T16:46:26.164Z,95.80
2022-07-29T16:48:53.083Z,96.60
2022-07-29T16:51:20.212Z,96.60
2022-07-29T16:53:49.825Z,96.60
2022-07-29T16:56:17.637Z,96.60
2022-07-29T16:58:44.402Z,96.60
2022-07-29T17:01:11.755Z,96.60
2022-07-29T17:04:01.467Z,96.60
2022-07-29T17:06:29.659Z,96.60
2022-07-29T17:08:56.846Z,96.60
2022-07-29T17:11:52.477Z,96.60
2022-07-29T17:14:10.874Z,96.60
2022-07-29T17:16:37.687Z,96.60
2022-07-29T17:19:04.799Z,96.60
2022-07-29T17:21:31.583Z,96.60
2022-07-29T17:23:59.314Z,96.60
2022-07-29T17:26:28.064Z,96.60
2022-07-29T17:28:55.661Z,96.60
2022-07-29T17:31:23.460Z,96.60
2022-07-29T17:33:50.450Z,96.60
2022-07-29T17:36:29.363Z,96.60
2022-07-29T17:38:57.448Z,96.60
2022-07-29T17:41:24.779Z,96.60
2022-07-29T17:43:51.864Z,96.60
2022-07-29T17:46:19.143Z,96.60
2022-07-29T17:48:46.106Z,96.60
2022-07-29T17:51:13.065Z,96.60
2022-07-29T17:53:39.954Z,96.60
2022-07-29T17:56:06.897Z,96.60
2022-07-29T17:58:35.376Z,96.60
2022-07-29T18:01:02.202Z,96.60
2022-07-29T18:03:29.307Z,96.60
2022-07-29T18:05:56.093Z,96.60
2022-07-29T18:08:23.392Z,96.60
2022-07-29T18:10:53.119Z,96.60
2022-07-29T18:13:20.184Z,96.60
2022-07-29T18:15:46.932Z,96.60
2022-07-29T18:18:19.210Z,96.60
2022-07-29T18:20:46.305Z,96.60
2022-07-29T18:23:13.386Z,96.60
2022-07-29T18:25:40.202Z,96.60
2022-07-29T18:28:07.181Z,96.60
2022-07-29T18:30:34.538Z,96.60
2022-07-29T18:35:48.647Z,96.60
2022-07-29T18:38:15.625Z,96.60
2022-07-29T18:40:42.671Z,96.60
2022-07-29T18:43:09.468Z,96.60
2022-07-29T18:45:36.281Z,96.60
2022-07-29T18:48:08.370Z,96.60
2022-07-29T18:50:43.072Z,96.60
2022-07-29T18:53:09.928Z,96.60
2022-07-29T18:55:36.847Z,96.60
2022-07-29T18:58:03.598Z,96.60
2022-07-29T19:00:30.618Z,96.60
2022-07-29T19:02:57.727Z,96.60
2022-07-29T19:05:24.918Z,96.60
2022-07-29T19:07:51.720Z,96.60
2022-07-29T19:10:22.008Z,96.60
2022-07-29T19:12:54.990Z,96.60
2022-07-29T19:15:21.724Z,96.60
2022-07-29T19:17:48.896Z,96.60
2022-07-29T19:20:15.970Z,96.60
2022-07-29T19:22:42.751Z,96.60
2022-07-29T19:25:10.027Z,96.60
2022-07-29T19:27:36.965Z,96.60
2022-07-29T19:30:06.584Z,96.60
2022-07-29T19:32:33.574Z,96.60
2022-07-29T19:35:19.079Z,96.60
2022-07-29T19:37:45.916Z,96.60
2022-07-29T19:40:13.213Z,96.60
2022-07-29T19:42:39.919Z,96.60
2022-07-29T19:45:07.091Z,96.60
2022-07-29T19:47:33.813Z,96.60
2022-07-29T19:50:00.765Z,96.60
2022-07-29T19:52:27.724Z,96.60
2022-07-29T19:54:54.551Z,96.60
2022-07-29T19:57:21.504Z,96.60
2022-07-29T19:59:48.313Z,96.60
2022-07-29T20:02:16.511Z,96.60
2022-07-29T20:04:43.792Z,96.60
2022-07-29T20:07:11.489Z,96.60
2022-07-29T20:09:39.992Z,96.60
2022-07-29T20:12:10.048Z,96.60
2022-07-29T20:14:36.951Z,96.60
2022-07-29T20:17:04.569Z,96.60
2022-07-29T20:19:32.954Z,96.60
2022-07-29T20:21:59.904Z,96.60
2022-07-29T20:24:26.610Z,96.60
2022-07-29T20:26:53.321Z,96.60
2022-07-29T20:29:20.125Z,96.60
2022-07-29T20:31:52.921Z,96.60
2022-07-29T20:34:23.195Z,96.60
2022-07-29T20:36:49.967Z,96.60
2022-07-29T20:39:17.072Z,96.60
2022-07-29T20:41:44.430Z,96.60
2022-07-29T20:44:11.256Z,96.60
2022-07-29T20:46:39.251Z,96.60
2022-07-29T20:49:06.258Z,96.60
2022-07-29T20:51:33.059Z,96.60
2022-07-29T20:54:17.488Z,96.60
2022-07-29T20:56:44.197Z,96.60
2022-07-29T20:59:11.372Z,96.60
2022-07-29T21:01:38.168Z,96.60
2022-07-29T21:04:19.363Z,96.60
2022-07-29T21:06:52.292Z,96.60
2022-07-29T21:09:26.304Z,96.60
2022-07-29T21:11:53.332Z,96.60
2022-07-29T21:14:36.129Z,96.60
2022-07-29T21:17:10.190Z,96.60
2022-07-29T21:19:41.070Z,96.60
2022-07-29T21:22:16.714Z,96.60
2022-07-29T21:24:43.467Z,96.60
2022-07-29T21:27:35.014Z,96.60
2022-07-29T21:30:18.249Z,96.60
2022-07-29T21:32:51.880Z,96.60
2022-07-29T21:36:01.689Z,96.60
2022-07-29T21:38:05.441Z,96.60
2022-07-29T21:40:32.238Z,96.60
2022-07-29T21:42:59.033Z,96.60
2022-07-29T21:45:26.386Z,96.60
2022-07-29T21:47:53.142Z,96.60
2022-07-29T21:50:20.227Z,96.60
2022-07-29T21:52:46.910Z,96.60
2022-07-29T21:55:14.150Z,96.60
2022-07-29T21:57:40.956Z,96.60
2022-07-29T22:00:10.609Z,96.60
2022-07-29T22:02:54.570Z,96.60
2022-07-29T22:05:21.508Z,96.60
2022-07-29T22:07:56.360Z,96.60
2022-07-29T22:10:27.475Z,96.60
2022-07-29T22:12:55.427Z,96.60
2022-07-29T22:15:22.621Z,96.60
2022-07-29T22:17:49.752Z,96.60
2022-07-29T22:20:16.499Z,96.60
2022-07-29T22:22:43.528Z,96.60
2022-07-29T22:25:10.549Z,96.60
2022-07-29T22:27:37.694Z,96.60
2022-07-29T22:30:05.669Z,96.60
2022-07-29T22:32:32.805Z,96.60
2022-07-29T22:34:59.519Z,96.60
2022-07-29T22:37:26.252Z,96.60
2022-07-29T22:39:53.135Z,96.60
2022-07-29T22:42:19.898Z,96.60
2022-07-29T22:44:46.686Z,96.60
2022-07-29T22:47:13.477Z,96.60
2022-07-29T22:49:40.185Z,96.60
2022-07-29T22:52:07.025Z,96.60
2022-07-29T22:54:33.812Z,96.60
2022-07-29T22:57:01.440Z,96.60
2022-07-29T22:59:28.261Z,96.60
2022-07-29T23:01:58.035Z,96.60
2022-07-29T23:04:25.008Z,96.60
2022-07-29T23:06:54.053Z,96.60
2022-07-29T23:09:21.174Z,96.60
2022-07-29T23:11:48.263Z,96.60
2022-07-29T23:14:15.368Z,96.60
2022-07-29T23:16:42.590Z,96.60
2022-07-29T23:19:09.512Z,96.60
2022-07-29T23:21:36.238Z,96.60
2022-07-29T23:24:03.034Z,96.60
2022-07-29T23:26:30.212Z,96.60
2022-07-29T23:28:57.042Z,96.60
2022-07-29T23:31:23.848Z,96.60
2022-07-29T23:33:50.543Z,96.60
2022-07-29T23:36:17.459Z,96.60
2022-07-29T23:38:46.641Z,96.60
2022-07-29T23:41:13.606Z,96.60
2022-07-29T23:43:40.367Z,96.60
2022-07-29T23:46:07.194Z,96.60
2022-07-29T23:48:34.147Z,96.60
2022-07-29T23:51:01.246Z,96.60
2022-07-29T23:53:28.237Z,96.60
2022-07-29T23:55:55.693Z,96.60
2022-07-29T23:58:22.626Z,96.60
